Bishop Sutton, United Kingdom
Current Conditions -  °F | °C
As of 8:50 PM on Thursday 20 Nov 2014 (Local Time) from EGGD Reporting Station
Broken Clouds Broken Clouds  
Wind Chill:   Ceiling: 1800
Heat Index:   Visibility: 6mi
Dew Point:   Wind: 7mph
Humidity: 81%   Direction: 70°ENE
Pressure: 30.21"   Gusts: NA
Location:  51.37°N, 2.55°W
Report Text: EGGD 202050Z 07006KT 9999 SCT014 BKN018 08/05 Q1023
Loading
Personal Weather Stations






























Interactive Weather Map New forecast layout! Learn more

10-Day Weather Forecast

Advertisements
Track Severe Weather on mobile